sensor_id;sensor_type;location;lat;lon;timestamp;pressure;altitude;pressure_sealevel;temperature;humidity
7376;BME280;3728;42.266;24.944;2023-12-04T00:02:03;100003.75;;;6.72;100.00
7376;BME280;3728;42.266;24.944;2023-12-04T00:04:30;100004.56;;;6.47;100.00
7376;BME280;3728;42.266;24.944;2023-12-04T00:06:58;100004.56;;;6.47;100.00
7376;BME280;3728;42.266;24.944;2023-12-04T00:09:25;100009.50;;;6.24;100.00
7376;BME280;3728;42.266;24.944;2023-12-04T00:11:54;100008.97;;;6.42;100.00
7376;BME280;3728;42.266;24.944;2023-12-04T00:14:21;100011.59;;;6.52;100.00
7376;BME280;3728;42.266;24.944;2023-12-04T00:16:48;100014.19;;;6.52;100.00
7376;BME280;3728;42.266;24.944;2023-12-04T00:19:15;100016.25;;;6.45;100.00
7376;BME280;3728;42.266;24.944;2023-12-04T00:21:42;100017.28;;;6.44;100.00
7376;BME280;3728;42.266;24.944;2023-12-04T00:24:10;100017.81;;;6.41;100.00
7376;BME280;3728;42.266;24.944;2023-12-04T00:26:37;100024.34;;;6.38;100.00
7376;BME280;3728;42.266;24.944;2023-12-04T00:29:04;100027.19;;;6.72;100.00
7376;BME280;3728;42.266;24.944;2023-12-04T00:31:31;100036.28;;;6.64;100.00
7376;BME280;3728;42.266;24.944;2023-12-04T00:34:00;100053.22;;;6.52;100.00
7376;BME280;3728;42.266;24.944;2023-12-04T00:36:27;100055.28;;;6.40;100.00
7376;BME280;3728;42.266;24.944;2023-12-04T00:38:54;100053.69;;;6.34;100.00
7376;BME280;3728;42.266;24.944;2023-12-04T00:41:21;100059.66;;;6.14;100.00
7376;BME280;3728;42.266;24.944;2023-12-04T00:43:49;100066.16;;;6.11;100.00
7376;BME280;3728;42.266;24.944;2023-12-04T00:46:16;100073.22;;;6.36;100.00
7376;BME280;3728;42.266;24.944;2023-12-04T00:48:43;100075.53;;;6.22;100.00
7376;BME280;3728;42.266;24.944;2023-12-04T00:51:12;100086.47;;;6.30;100.00
7376;BME280;3728;42.266;24.944;2023-12-04T00:53:39;100087.28;;;6.40;100.00
7376;BME280;3728;42.266;24.944;2023-12-04T00:56:07;100084.38;;;6.32;100.00
7376;BME280;3728;42.266;24.944;2023-12-04T00:58:35;100077.94;;;6.49;100.00
7376;BME280;3728;42.266;24.944;2023-12-04T01:01:06;100069.34;;;6.74;99.29
7376;BME280;3728;42.266;24.944;2023-12-04T01:03:33;100068.53;;;6.28;99.58
7376;BME280;3728;42.266;24.944;2023-12-04T01:06:00;100067.38;;;5.94;100.00
7376;BME280;3728;42.266;24.944;2023-12-04T01:08:28;100071.38;;;6.32;100.00
7376;BME280;3728;42.266;24.944;2023-12-04T01:10:55;100079.66;;;6.08;100.00
7376;BME280;3728;42.266;24.944;2023-12-04T01:13:22;100083.31;;;6.07;100.00
7376;BME280;3728;42.266;24.944;2023-12-04T01:15:49;100085.16;;;6.12;100.00
7376;BME280;3728;42.266;24.944;2023-12-04T01:18:17;100086.91;;;6.01;100.00
7376;BME280;3728;42.266;24.944;2023-12-04T01:20:45;100085.19;;;6.42;100.00
7376;BME280;3728;42.266;24.944;2023-12-04T01:23:12;100075.50;;;6.12;98.09
7376;BME280;3728;42.266;24.944;2023-12-04T01:25:42;100086.47;;;6.30;98.38
7376;BME280;3728;42.266;24.944;2023-12-04T01:28:11;100089.94;;;5.83;100.00
7376;BME280;3728;42.266;24.944;2023-12-04T01:30:38;100088.16;;;5.89;100.00
7376;BME280;3728;42.266;24.944;2023-12-04T01:33:11;100083.28;;;5.97;100.00
7376;BME280;3728;42.266;24.944;2023-12-04T01:35:38;100089.06;;;6.25;100.00
7376;BME280;3728;42.266;24.944;2023-12-04T01:38:05;100079.16;;;6.11;99.01
7376;BME280;3728;42.266;24.944;2023-12-04T01:40:33;100090.25;;;5.92;100.00
7376;BME280;3728;42.266;24.944;2023-12-04T01:43:01;100083.34;;;5.56;100.00
7376;BME280;3728;42.266;24.944;2023-12-04T01:45:29;100092.75;;;5.67;100.00
7376;BME280;3728;42.266;24.944;2023-12-04T01:47:57;100091.50;;;5.79;100.00
7376;BME280;3728;42.266;24.944;2023-12-04T01:50:25;100089.94;;;5.83;100.00
7376;BME280;3728;42.266;24.944;2023-12-04T01:52:53;100093.63;;;5.87;100.00
7376;BME280;3728;42.266;24.944;2023-12-04T01:55:20;100104.06;;;5.97;100.00
7376;BME280;3728;42.266;24.944;2023-12-04T01:57:48;100093.63;;;5.87;100.00
7376;BME280;3728;42.266;24.944;2023-12-04T02:00:16;100093.81;;;5.76;98.38
7376;BME280;3728;42.266;24.944;2023-12-04T02:02:46;100093.34;;;5.84;99.86
7376;BME280;3728;42.266;24.944;2023-12-04T02:05:14;100093.84;;;5.81;99.64
7376;BME280;3728;42.266;24.944;2023-12-04T02:07:41;100109.78;;;5.94;98.46
7376;BME280;3728;42.266;24.944;2023-12-04T02:10:09;100104.63;;;6.09;96.17
7376;BME280;3728;42.266;24.944;2023-12-04T02:12:40;100095.75;;;6.05;91.72
7376;BME280;3728;42.266;24.944;2023-12-04T02:15:08;100096.88;;;5.68;95.35
7376;BME280;3728;42.266;24.944;2023-12-04T02:17:36;100093.56;;;5.77;94.47
7376;BME280;3728;42.266;24.944;2023-12-04T02:20:04;100111.38;;;6.00;96.79
7376;BME280;3728;42.266;24.944;2023-12-04T02:22:31;100101.03;;;5.64;95.80
7376;BME280;3728;42.266;24.944;2023-12-04T02:24:59;100103.91;;;5.67;97.00
7376;BME280;3728;42.266;24.944;2023-12-04T02:27:47;100111.38;;;5.53;100.00
7376;BME280;3728;42.266;24.944;2023-12-04T02:30:18;100116.00;;;5.41;99.63
7376;BME280;3728;42.266;24.944;2023-12-04T02:32:48;100116.75;;;5.42;98.73
7376;BME280;3728;42.266;24.944;2023-12-04T02:35:19;100119.53;;;5.30;99.83
7376;BME280;3728;42.266;24.944;2023-12-04T02:37:48;100124.25;;;5.80;98.59
7376;BME280;3728;42.266;24.944;2023-12-04T02:40:16;100136.81;;;5.51;96.61
7376;BME280;3728;42.266;24.944;2023-12-04T02:42:44;100134.88;;;5.74;96.69
7376;BME280;3728;42.266;24.944;2023-12-04T02:45:12;100130.47;;;5.74;95.07
7376;BME280;3728;42.266;24.944;2023-12-04T02:47:39;100135.34;;;5.66;94.92
7376;BME280;3728;42.266;24.944;2023-12-04T02:50:07;100136.28;;;5.49;95.88
7376;BME280;3728;42.266;24.944;2023-12-04T02:52:34;100136.41;;;5.28;99.43
7376;BME280;3728;42.266;24.944;2023-12-04T02:55:01;100140.88;;;5.37;100.00
7376;BME280;3728;42.266;24.944;2023-12-04T02:57:28;100141.03;;;5.58;95.80
7376;BME280;3728;42.266;24.944;2023-12-04T02:59:56;100142.22;;;5.45;96.04
7376;BME280;3728;42.266;24.944;2023-12-04T03:02:23;100150.66;;;5.62;96.37
7376;BME280;3728;42.266;24.944;2023-12-04T03:04:50;100144.75;;;5.82;92.23
7376;BME280;3728;42.266;24.944;2023-12-04T03:07:17;100147.28;;;5.62;95.46
7376;BME280;3728;42.266;24.944;2023-12-04T03:09:46;100143.28;;;5.49;94.80
7376;BME280;3728;42.266;24.944;2023-12-04T03:12:16;100149.03;;;5.56;94.81
7376;BME280;3728;42.266;24.944;2023-12-04T03:14:44;100158.69;;;5.61;95.11
7376;BME280;3728;42.266;24.944;2023-12-04T03:17:11;100160.22;;;5.57;91.85
7376;BME280;3728;42.266;24.944;2023-12-04T03:19:38;100161.03;;;5.20;95.72
7376;BME280;3728;42.266;24.944;2023-12-04T03:22:05;100164.34;;;5.11;98.19
7376;BME280;3728;42.266;24.944;2023-12-04T03:24:32;100167.47;;;5.13;97.71
7376;BME280;3728;42.266;24.944;2023-12-04T03:27:00;100169.34;;;5.59;94.57
7376;BME280;3728;42.266;24.944;2023-12-04T03:29:27;100171.59;;;5.45;93.48
7376;BME280;3728;42.266;24.944;2023-12-04T03:31:54;100180.81;;;5.68;92.97
7376;BME280;3728;42.266;24.944;2023-12-04T03:34:21;100180.44;;;5.49;94.26
7376;BME280;3728;42.266;24.944;2023-12-04T03:36:48;100183.69;;;5.30;95.16
7376;BME280;3728;42.266;24.944;2023-12-04T03:39:15;100187.59;;;5.69;93.77
7376;BME280;3728;42.266;24.944;2023-12-04T03:41:43;100188.81;;;5.57;93.41
7376;BME280;3728;42.266;24.944;2023-12-04T03:44:10;100194.09;;;5.35;94.29
7376;BME280;3728;42.266;24.944;2023-12-04T03:46:37;100194.88;;;5.35;92.69
7376;BME280;3728;42.266;24.944;2023-12-04T03:49:05;100191.34;;;5.15;94.21
7376;BME280;3728;42.266;24.944;2023-12-04T03:51:32;100200.56;;;5.27;96.11
7376;BME280;3728;42.266;24.944;2023-12-04T03:54:00;100189.25;;;5.12;94.82
7376;BME280;3728;42.266;24.944;2023-12-04T03:56:27;100186.66;;;5.12;94.73
7376;BME280;3728;42.266;24.944;2023-12-04T03:58:54;100181.19;;;5.08;95.11
7376;BME280;3728;42.266;24.944;2023-12-04T04:01:21;100183.97;;;5.02;96.21
7376;BME280;3728;42.266;24.944;2023-12-04T04:03:48;100192.78;;;5.01;96.69
7376;BME280;3728;42.266;24.944;2023-12-04T04:06:15;100199.41;;;5.13;93.30
7376;BME280;3728;42.266;24.944;2023-12-04T04:08:43;100202.06;;;4.92;94.88
7376;BME280;3728;42.266;24.944;2023-12-04T04:11:13;100210.66;;;4.97;95.33
7376;BME280;3728;42.266;24.944;2023-12-04T04:13:40;100219.53;;;4.74;97.38
7376;BME280;3728;42.266;24.944;2023-12-04T04:16:07;100225.34;;;4.87;98.04
7376;BME280;3728;42.266;24.944;2023-12-04T04:18:39;100225.81;;;5.05;95.01
7376;BME280;3728;42.266;24.944;2023-12-04T04:21:06;100223.47;;;5.09;95.36
7376;BME280;3728;42.266;24.944;2023-12-04T04:23:33;100222.56;;;4.93;95.78
7376;BME280;3728;42.266;24.944;2023-12-04T04:26:01;100216.31;;;4.89;97.13
7376;BME280;3728;42.266;24.944;2023-12-04T04:28:29;100210.22;;;4.78;97.96
7376;BME280;3728;42.266;24.944;2023-12-04T04:30:56;100230.03;;;4.63;100.00
7376;BME280;3728;42.266;24.944;2023-12-04T04:33:23;100224.00;;;5.06;96.81
7376;BME280;3728;42.266;24.944;2023-12-04T04:35:50;100233.94;;;4.87;97.79
7376;BME280;3728;42.266;24.944;2023-12-04T04:38:18;100235.28;;;4.68;100.00
7376;BME280;3728;42.266;24.944;2023-12-04T04:40:45;100233.94;;;4.87;98.79
7376;BME280;3728;42.266;24.944;2023-12-04T04:43:12;100249.31;;;4.94;98.58
7376;BME280;3728;42.266;24.944;2023-12-04T04:45:39;100246.75;;;4.99;97.93
7376;BME280;3728;42.266;24.944;2023-12-04T04:48:06;100255.38;;;5.31;97.13
7376;BME280;3728;42.266;24.944;2023-12-04T04:50:34;100252.28;;;5.34;92.75
7376;BME280;3728;42.266;24.944;2023-12-04T04:53:02;100260.75;;;4.98;93.80
7376;BME280;3728;42.266;24.944;2023-12-04T04:55:29;100257.94;;;4.99;94.53
7376;BME280;3728;42.266;24.944;2023-12-04T04:58:18;100257.94;;;4.99;93.53
7376;BME280;3728;42.266;24.944;2023-12-04T05:00:46;100269.66;;;5.07;94.05
7376;BME280;3728;42.266;24.944;2023-12-04T05:03:16;100271.09;;;5.46;90.48
7376;BME280;3728;42.266;24.944;2023-12-04T05:05:43;100276.84;;;4.73;95.19
7376;BME280;3728;42.266;24.944;2023-12-04T05:08:10;100275.63;;;4.80;95.68
7376;BME280;3728;42.266;24.944;2023-12-04T05:10:43;100280.06;;;4.80;96.21
7376;BME280;3728;42.266;24.944;2023-12-04T05:13:10;100278.66;;;4.72;96.03
7376;BME280;3728;42.266;24.944;2023-12-04T05:15:38;100285.69;;;4.99;95.47
7376;BME280;3728;42.266;24.944;2023-12-04T05:18:05;100277.84;;;4.94;94.93
7376;BME280;3728;42.266;24.944;2023-12-04T05:20:32;100281.91;;;4.84;95.73
7376;BME280;3728;42.266;24.944;2023-12-04T05:22:59;100288.38;;;4.60;97.29
7376;BME280;3728;42.266;24.944;2023-12-04T05:25:26;100287.50;;;4.55;98.89
7376;BME280;3728;42.266;24.944;2023-12-04T05:28:04;100295.78;;;4.73;98.06
7376;BME280;3728;42.266;24.944;2023-12-04T05:30:31;100290.13;;;4.76;96.82
7376;BME280;3728;42.266;24.944;2023-12-04T05:32:58;100296.09;;;4.77;97.04
7376;BME280;3728;42.266;24.944;2023-12-04T05:35:25;100298.63;;;4.94;95.85
7376;BME280;3728;42.266;24.944;2023-12-04T05:37:53;100306.22;;;5.00;95.87
7376;BME280;3728;42.266;24.944;2023-12-04T05:40:20;100304.13;;;4.75;97.07
7376;BME280;3728;42.266;24.944;2023-12-04T05:42:47;100316.84;;;4.77;97.57
7376;BME280;3728;42.266;24.944;2023-12-04T05:45:14;100313.13;;;4.68;98.13
7376;BME280;3728;42.266;24.944;2023-12-04T05:47:41;100322.56;;;5.01;94.05
7376;BME280;3728;42.266;24.944;2023-12-04T05:50:09;100330.13;;;4.80;93.72
7376;BME280;3728;42.266;24.944;2023-12-04T05:52:36;100339.66;;;4.53;95.34
7376;BME280;3728;42.266;24.944;2023-12-04T05:55:03;100346.53;;;4.64;94.28
7376;BME280;3728;42.266;24.944;2023-12-04T05:57:32;100342.00;;;4.76;92.40
7376;BME280;3728;42.266;24.944;2023-12-04T05:59:59;100342.16;;;4.48;93.78
7376;BME280;3728;42.266;24.944;2023-12-04T06:02:29;100337.91;;;4.59;91.45
7376;BME280;3728;42.266;24.944;2023-12-04T06:04:57;100345.72;;;4.42;92.12
7376;BME280;3728;42.266;24.944;2023-12-04T06:07:24;100340.88;;;4.12;95.74
7376;BME280;3728;42.266;24.944;2023-12-04T06:09:51;100353.09;;;4.34;93.90
7376;BME280;3728;42.266;24.944;2023-12-04T06:12:19;100348.72;;;4.34;93.78
7376;BME280;3728;42.266;24.944;2023-12-04T06:14:46;100354.38;;;4.31;93.38
7376;BME280;3728;42.266;24.944;2023-12-04T06:17:13;100353.91;;;4.34;94.49
7376;BME280;3728;42.266;24.944;2023-12-04T06:19:41;100356.28;;;4.36;93.95
7376;BME280;3728;42.266;24.944;2023-12-04T06:22:08;100362.38;;;4.46;92.54
7376;BME280;3728;42.266;24.944;2023-12-04T06:24:36;100366.47;;;4.42;93.17
7376;BME280;3728;42.266;24.944;2023-12-04T06:27:04;100365.78;;;4.13;96.16
7376;BME280;3728;42.266;24.944;2023-12-04T06:29:33;100380.19;;;4.59;95.72
7376;BME280;3728;42.266;24.944;2023-12-04T06:32:02;100383.25;;;4.56;94.43
7376;BME280;3728;42.266;24.944;2023-12-04T06:34:31;100381.69;;;4.55;95.45
7376;BME280;3728;42.266;24.944;2023-12-04T06:36:59;100387.75;;;4.44;96.18
7376;BME280;3728;42.266;24.944;2023-12-04T06:39:32;100400.34;;;4.74;96.17
7376;BME280;3728;42.266;24.944;2023-12-04T06:42:00;100396.31;;;4.83;95.13
7376;BME280;3728;42.266;24.944;2023-12-04T06:44:28;100406.50;;;4.68;96.83
7376;BME280;3728;42.266;24.944;2023-12-04T06:46:59;100405.06;;;4.77;94.53
7376;BME280;3728;42.266;24.944;2023-12-04T06:49:32;100402.94;;;4.74;95.02
7376;BME280;3728;42.266;24.944;2023-12-04T06:52:00;100404.94;;;4.67;96.23
7376;BME280;3728;42.266;24.944;2023-12-04T06:54:28;100415.88;;;4.91;96.66
7376;BME280;3728;42.266;24.944;2023-12-04T06:56:55;100407.50;;;4.83;95.87
7376;BME280;3728;42.266;24.944;2023-12-04T06:59:22;100414.03;;;4.69;94.90
7376;BME280;3728;42.266;24.944;2023-12-04T07:01:50;100416.34;;;4.66;96.89
7376;BME280;3728;42.266;24.944;2023-12-04T07:04:17;100413.75;;;4.66;96.00
7376;BME280;3728;42.266;24.944;2023-12-04T07:06:48;100414.19;;;4.79;94.27
7376;BME280;3728;42.266;24.944;2023-12-04T07:09:15;100416.97;;;4.73;94.24
7376;BME280;3728;42.266;24.944;2023-12-04T07:11:46;100412.81;;;4.94;92.45
7376;BME280;3728;42.266;24.944;2023-12-04T07:14:14;100412.47;;;4.85;92.08
7376;BME280;3728;42.266;24.944;2023-12-04T07:16:42;100421.00;;;4.85;92.78
7376;BME280;3728;42.266;24.944;2023-12-04T07:19:10;100427.97;;;5.02;90.70
7376;BME280;3728;42.266;24.944;2023-12-04T07:21:38;100428.06;;;4.90;91.14
7376;BME280;3728;42.266;24.944;2023-12-04T07:24:06;100427.31;;;4.90;90.40
7376;BME280;3728;42.266;24.944;2023-12-04T07:26:35;100432.66;;;4.83;90.82
7376;BME280;3728;42.266;24.944;2023-12-04T07:29:02;100438.81;;;4.77;91.11
7376;BME280;3728;42.266;24.944;2023-12-04T07:31:30;100447.88;;;4.96;88.23
7376;BME280;3728;42.266;24.944;2023-12-04T07:33:58;100446.09;;;5.18;88.59
7376;BME280;3728;42.266;24.944;2023-12-04T07:36:28;100440.19;;;5.01;88.04
7376;BME280;3728;42.266;24.944;2023-12-04T07:38:55;100446.31;;;4.95;89.10
7376;BME280;3728;42.266;24.944;2023-12-04T07:41:26;100449.84;;;5.06;88.07
7376;BME280;3728;42.266;24.944;2023-12-04T07:43:54;100455.03;;;5.06;87.01
7376;BME280;3728;42.266;24.944;2023-12-04T07:46:22;100449.00;;;5.43;87.95
7376;BME280;3728;42.266;24.944;2023-12-04T07:48:49;100448.78;;;5.72;85.05
7376;BME280;3728;42.266;24.944;2023-12-04T07:51:21;100452.53;;;5.59;86.77
7376;BME280;3728;42.266;24.944;2023-12-04T07:53:50;100456.19;;;5.63;83.44
7376;BME280;3728;42.266;24.944;2023-12-04T07:56:17;100455.13;;;5.59;84.13
7376;BME280;3728;42.266;24.944;2023-12-04T07:58:44;100458.81;;;6.11;79.97
7376;BME280;3728;42.266;24.944;2023-12-04T08:01:15;100464.63;;;6.24;77.36
7376;BME280;3728;42.266;24.944;2023-12-04T08:03:42;100460.34;;;6.12;79.64
7376;BME280;3728;42.266;24.944;2023-12-04T08:06:10;100461.59;;;6.37;77.73
7376;BME280;3728;42.266;24.944;2023-12-04T08:08:37;100464.16;;;6.32;79.77
7376;BME280;3728;42.266;24.944;2023-12-04T08:11:05;100469.97;;;6.44;76.99
7376;BME280;3728;42.266;24.944;2023-12-04T08:13:32;100467.38;;;6.44;75.20
7376;BME280;3728;42.266;24.944;2023-12-04T08:15:59;100471.78;;;6.43;76.40
7376;BME280;3728;42.266;24.944;2023-12-04T08:18:27;100471.09;;;6.53;75.31
7376;BME280;3728;42.266;24.944;2023-12-04T08:20:54;100474.91;;;6.40;74.74
7376;BME280;3728;42.266;24.944;2023-12-04T08:23:22;100481.25;;;6.22;75.27
7376;BME280;3728;42.266;24.944;2023-12-04T08:25:49;100480.22;;;6.24;75.90
7376;BME280;3728;42.266;24.944;2023-12-04T08:28:16;100477.06;;;6.16;77.18
7376;BME280;3728;42.266;24.944;2023-12-04T08:30:43;100475.63;;;6.31;75.48
7376;BME280;3728;42.266;24.944;2023-12-04T08:33:11;100471.53;;;6.13;75.24
7376;BME280;3728;42.266;24.944;2023-12-04T08:35:41;100471.66;;;6.23;75.86
7376;BME280;3728;42.266;24.944;2023-12-04T08:38:08;100478.22;;;6.31;76.68
7376;BME280;3728;42.266;24.944;2023-12-04T08:40:36;100481.97;;;6.45;74.13
7376;BME280;3728;42.266;24.944;2023-12-04T08:43:03;100479.31;;;6.76;72.63
7376;BME280;3728;42.266;24.944;2023-12-04T08:45:30;100477.44;;;6.67;70.58
7376;BME280;3728;42.266;24.944;2023-12-04T08:48:00;100480.22;;;6.55;72.80
7376;BME280;3728;42.266;24.944;2023-12-04T08:50:29;100484.06;;;6.48;72.92
7376;BME280;3728;42.266;24.944;2023-12-04T08:52:57;100491.28;;;6.41;73.01
7376;BME280;3728;42.266;24.944;2023-12-04T08:55:24;100495.69;;;6.35;73.76
7376;BME280;3728;42.266;24.944;2023-12-04T08:57:51;100491.31;;;6.46;73.48
7376;BME280;3728;42.266;24.944;2023-12-04T09:00:19;100485.16;;;6.52;74.12
7376;BME280;3728;42.266;24.944;2023-12-04T09:02:47;100494.44;;;6.43;74.59
7376;BME280;3728;42.266;24.944;2023-12-04T09:05:28;100483.69;;;6.34;73.51
7376;BME280;3728;42.266;24.944;2023-12-04T09:07:58;100479.41;;;6.55;73.96
7376;BME280;3728;42.266;24.944;2023-12-04T09:10:47;100479.53;;;6.70;72.98
7376;BME280;3728;42.266;24.944;2023-12-04T09:13:34;100481.84;;;7.03;69.96
7376;BME280;3728;42.266;24.944;2023-12-04T09:16:02;100476.06;;;6.96;72.13
7376;BME280;3728;42.266;24.944;2023-12-04T09:18:29;100473.91;;;6.88;72.04
7376;BME280;3728;42.266;24.944;2023-12-04T09:20:57;100471.25;;;6.73;72.89
7376;BME280;3728;42.266;24.944;2023-12-04T09:23:24;100480.56;;;6.69;73.59
7376;BME280;3728;42.266;24.944;2023-12-04T09:25:54;100473.19;;;6.56;74.20
7376;BME280;3728;42.266;24.944;2023-12-04T09:28:22;100465.59;;;6.86;72.49
7376;BME280;3728;42.266;24.944;2023-12-04T09:30:49;100462.56;;;7.09;72.50
7376;BME280;3728;42.266;24.944;2023-12-04T09:33:16;100459.31;;;6.82;74.67
7376;BME280;3728;42.266;24.944;2023-12-04T09:35:44;100459.31;;;6.82;74.17
7376;BME280;3728;42.266;24.944;2023-12-04T09:38:12;100457.69;;;6.71;74.12
7376;BME280;3728;42.266;24.944;2023-12-04T09:40:40;100458.66;;;7.07;72.59
7376;BME280;3728;42.266;24.944;2023-12-04T09:43:07;100467.63;;;7.31;71.48
7376;BME280;3728;42.266;24.944;2023-12-04T09:45:36;100459.44;;;7.07;72.82
7376;BME280;3728;42.266;24.944;2023-12-04T09:48:05;100458.91;;;7.05;74.41
7376;BME280;3728;42.266;24.944;2023-12-04T09:50:36;100462.09;;;7.17;70.24
7376;BME280;3728;42.266;24.944;2023-12-04T09:53:06;100458.13;;;7.05;72.56
7376;BME280;3728;42.266;24.944;2023-12-04T09:55:37;100456.28;;;7.00;73.23
7376;BME280;3728;42.266;24.944;2023-12-04T09:58:10;100462.75;;;6.93;73.42
7376;BME280;3728;42.266;24.944;2023-12-04T10:00:42;100457.38;;;7.04;73.12
7376;BME280;3728;42.266;24.944;2023-12-04T10:03:10;100457.72;;;7.33;71.22
7376;BME280;3728;42.266;24.944;2023-12-04T10:05:37;100450.91;;;7.17;71.31
7376;BME280;3728;42.266;24.944;2023-12-04T10:08:14;100456.69;;;7.29;73.27
7376;BME280;3728;42.266;24.944;2023-12-04T10:10:44;100451.53;;;7.54;70.74
7376;BME280;3728;42.266;24.944;2023-12-04T10:13:13;100451.53;;;7.54;73.51
7376;BME280;3728;42.266;24.944;2023-12-04T10:16:00;100446.13;;;7.71;71.94
7376;BME280;3728;42.266;24.944;2023-12-04T10:18:28;100443.81;;;7.89;71.42
7376;BME280;3728;42.266;24.944;2023-12-04T10:21:00;100456.13;;;8.29;69.51
7376;BME280;3728;42.266;24.944;2023-12-04T10:23:44;100459.50;;;8.30;69.40
7376;BME280;3728;42.266;24.944;2023-12-04T10:26:14;100455.09;;;8.35;69.62
7376;BME280;3728;42.266;24.944;2023-12-04T10:29:03;100456.91;;;8.50;66.86
7376;BME280;3728;42.266;24.944;2023-12-04T10:31:33;100451.41;;;8.56;66.11
7376;BME280;3728;42.266;24.944;2023-12-04T10:34:04;100457.44;;;8.52;67.64
7376;BME280;3728;42.266;24.944;2023-12-04T10:36:32;100451.88;;;8.83;68.09
7376;BME280;3728;42.266;24.944;2023-12-04T10:39:01;100447.09;;;9.16;65.96
7376;BME280;3728;42.266;24.944;2023-12-04T10:41:31;100444.41;;;9.31;68.00
7376;BME280;3728;42.266;24.944;2023-12-04T10:43:59;100445.88;;;9.47;66.81
7376;BME280;3728;42.266;24.944;2023-12-04T10:46:36;100446.31;;;9.69;63.23
7376;BME280;3728;42.266;24.944;2023-12-04T10:49:08;100446.56;;;10.11;64.49
7376;BME280;3728;42.266;24.944;2023-12-04T10:51:38;100442.50;;;10.81;59.17
7376;BME280;3728;42.266;24.944;2023-12-04T10:54:10;100455.47;;;11.20;59.10
7376;BME280;3728;42.266;24.944;2023-12-04T10:56:40;100452.31;;;11.42;58.12
7376;BME280;3728;42.266;24.944;2023-12-04T10:59:19;100452.13;;;11.94;56.44
7376;BME280;3728;42.266;24.944;2023-12-04T11:01:51;100448.59;;;12.50;56.27
7376;BME280;3728;42.266;24.944;2023-12-04T11:04:23;100453.84;;;13.23;53.92
7376;BME280;3728;42.266;24.944;2023-12-04T11:06:53;100460.06;;;13.76;50.54
7376;BME280;3728;42.266;24.944;2023-12-04T11:09:22;100452.34;;;13.44;52.08
7376;BME280;3728;42.266;24.944;2023-12-04T11:11:57;100451.50;;;13.21;53.10
7376;BME280;3728;42.266;24.944;2023-12-04T11:14:31;100459.94;;;12.91;53.88
7376;BME280;3728;42.266;24.944;2023-12-04T11:17:06;100459.34;;;12.67;54.17
7376;BME280;3728;42.266;24.944;2023-12-04T11:19:50;100452.13;;;12.13;55.35
7376;BME280;3728;42.266;24.944;2023-12-04T11:22:24;100445.38;;;12.07;58.22
7376;BME280;3728;42.266;24.944;2023-12-04T11:24:52;100451.94;;;12.23;59.08
7376;BME280;3728;42.266;24.944;2023-12-04T11:27:20;100443.09;;;12.19;56.64
7376;BME280;3728;42.266;24.944;2023-12-04T11:29:48;100445.38;;;12.07;56.90
7376;BME280;3728;42.266;24.944;2023-12-04T11:32:17;100445.19;;;12.03;58.68
7376;BME280;3728;42.266;24.944;2023-12-04T11:34:54;100448.22;;;11.92;59.07
7376;BME280;3728;42.266;24.944;2023-12-04T11:37:23;100442.00;;;11.69;62.23
7376;BME280;3728;42.266;24.944;2023-12-04T11:39:50;100445.13;;;11.71;61.94
7376;BME280;3728;42.266;24.944;2023-12-04T11:42:24;100446.53;;;12.01;63.86
7376;BME280;3728;42.266;24.944;2023-12-04T11:44:56;100447.69;;;12.27;61.74
7376;BME280;3728;42.266;24.944;2023-12-04T11:47:28;100445.59;;;11.92;61.51
7376;BME280;3728;42.266;24.944;2023-12-04T11:49:58;100456.44;;;11.66;64.86
7376;BME280;3728;42.266;24.944;2023-12-04T11:52:36;100445.00;;;11.57;65.00
7376;BME280;3728;42.266;24.944;2023-12-04T11:55:05;100448.53;;;11.72;64.09
7376;BME280;3728;42.266;24.944;2023-12-04T11:57:39;100447.69;;;11.52;66.42
7376;BME280;3728;42.266;24.944;2023-12-04T12:00:22;100452.88;;;11.57;64.78
7376;BME280;3728;42.266;24.944;2023-12-04T12:05:41;100461.81;;;10.90;68.79
7376;BME280;3728;42.266;24.944;2023-12-04T12:08:09;100455.91;;;10.80;68.96
7376;BME280;3728;42.266;24.944;2023-12-04T12:10:38;100458.38;;;10.95;67.20
7376;BME280;3728;42.266;24.944;2023-12-04T12:13:06;100457.84;;;10.41;70.16
7376;BME280;3728;42.266;24.944;2023-12-04T12:15:34;100453.59;;;10.50;69.17
7376;BME280;3728;42.266;24.944;2023-12-04T12:18:01;100447.34;;;10.46;70.18
7376;BME280;3728;42.266;24.944;2023-12-04T12:20:29;100443.78;;;10.60;67.64
7376;BME280;3728;42.266;24.944;2023-12-04T12:22:59;100454.75;;;10.62;69.34
7376;BME280;3728;42.266;24.944;2023-12-04T12:25:28;100452.03;;;11.43;64.66
7376;BME280;3728;42.266;24.944;2023-12-04T12:27:57;100449.88;;;11.69;63.28
7376;BME280;3728;42.266;24.944;2023-12-04T12:30:25;100442.47;;;11.52;63.21
7376;BME280;3728;42.266;24.944;2023-12-04T12:32:53;100438.16;;;11.80;64.81
7376;BME280;3728;42.266;24.944;2023-12-04T12:35:20;100443.78;;;12.24;66.50
7376;BME280;3728;42.266;24.944;2023-12-04T12:37:51;100453.63;;;12.78;63.59
7376;BME280;3728;42.266;24.944;2023-12-04T12:40:22;100443.69;;;12.89;62.87
7376;BME280;3728;42.266;24.944;2023-12-04T12:42:49;100458.19;;;12.86;61.43
7376;BME280;3728;42.266;24.944;2023-12-04T12:45:18;100451.41;;;12.53;61.21
7376;BME280;3728;42.266;24.944;2023-12-04T12:47:45;100454.41;;;11.82;65.26
7376;BME280;3728;42.266;24.944;2023-12-04T12:50:14;100446.50;;;11.63;65.96
7376;BME280;3728;42.266;24.944;2023-12-04T12:52:43;100436.56;;;12.16;64.07
7376;BME280;3728;42.266;24.944;2023-12-04T12:55:10;100453.53;;;12.38;61.92
7376;BME280;3728;42.266;24.944;2023-12-04T12:57:40;100443.91;;;12.01;62.78
7376;BME280;3728;42.266;24.944;2023-12-04T13:00:09;100459.84;;;11.48;65.61
7376;BME280;3728;42.266;24.944;2023-12-04T13:02:37;100446.78;;;11.01;68.26
7376;BME280;3728;42.266;24.944;2023-12-04T13:05:05;100446.31;;;10.70;69.14
7376;BME280;3728;42.266;24.944;2023-12-04T13:07:39;100448.94;;;10.42;72.23
7376;BME280;3728;42.266;24.944;2023-12-04T13:10:08;100454.56;;;10.25;71.03
7376;BME280;3728;42.266;24.944;2023-12-04T13:12:36;100457.03;;;10.11;72.24
7376;BME280;3728;42.266;24.944;2023-12-04T13:15:04;100459.72;;;9.96;75.16
7376;BME280;3728;42.266;24.944;2023-12-04T13:17:31;100448.84;;;9.84;74.48
7376;BME280;3728;42.266;24.944;2023-12-04T13:19:59;100446.97;;;9.41;75.93